createdAt,value
2024-01-07T00:07:11.537Z,4.7
2024-01-07T00:14:44.029Z,4.5
2024-01-07T00:22:16.479Z,4.3
2024-01-07T00:29:48.925Z,4.8
2024-01-07T00:37:21.357Z,3.9
2024-01-07T00:44:53.831Z,4.4
2024-01-07T00:52:26.279Z,5.3
2024-01-07T00:59:58.722Z,4.0
2024-01-07T01:07:31.148Z,4.8
2024-01-07T01:15:03.562Z,4.5
2024-01-07T01:22:35.988Z,4.4
2024-01-07T01:30:08.472Z,3.9
2024-01-07T01:37:40.978Z,3.9
2024-01-07T01:45:13.419Z,4.2
2024-01-07T01:52:45.850Z,3.3
2024-01-07T02:00:18.344Z,3.3
2024-01-07T02:07:50.777Z,3.1
2024-01-07T02:15:23.346Z,3.7
2024-01-07T02:22:55.846Z,3.4
2024-01-07T02:30:28.383Z,2.5
2024-01-07T02:38:00.873Z,2.9
2024-01-07T02:45:33.344Z,2.6
2024-01-07T02:53:05.785Z,2.6
2024-01-07T03:00:38.303Z,2.8
2024-01-07T03:08:10.809Z,2.4
2024-01-07T03:15:43.293Z,2.7
2024-01-07T03:23:15.777Z,2.5
2024-01-07T03:30:48.286Z,2.3
2024-01-07T03:38:20.753Z,2.4
2024-01-07T03:45:53.254Z,2.9
2024-01-07T03:53:25.730Z,3.1
2024-01-07T04:00:58.305Z,1.4
2024-01-07T04:08:30.773Z,2.0
2024-01-07T04:16:03.250Z,2.5
2024-01-07T04:23:35.702Z,1.9
2024-01-07T04:31:08.240Z,1.8
2024-01-07T04:38:40.720Z,1.2
2024-01-07T04:46:13.163Z,1.6
2024-01-07T04:53:45.613Z,1.3
2024-01-07T05:01:18.158Z,1.4
2024-01-07T05:08:50.652Z,1.4
2024-01-07T05:16:23.091Z,1.4
2024-01-07T05:23:55.515Z,1.7
2024-01-07T05:31:28.045Z,1.2
2024-01-07T05:39:00.582Z,1.4
2024-01-07T05:46:33.017Z,2.1
2024-01-07T05:54:05.452Z,1.8
2024-01-07T06:01:37.922Z,1.4
2024-01-07T06:09:10.364Z,1.5
2024-01-07T06:16:42.779Z,1.7
2024-01-07T06:24:15.216Z,1.2
2024-01-07T06:31:47.780Z,1.5
2024-01-07T06:39:20.242Z,2.1
2024-01-07T06:46:52.662Z,1.7
2024-01-07T06:54:25.072Z,2.0
2024-01-07T07:01:57.546Z,1.6
2024-01-07T07:09:30.072Z,1.6
2024-01-07T07:17:02.512Z,1.9
2024-01-07T07:24:35.005Z,2.1
2024-01-07T07:32:07.453Z,2.0
2024-01-07T07:39:39.948Z,2.4
2024-01-07T07:47:12.396Z,2.0
2024-01-07T07:54:44.946Z,1.6
2024-01-07T08:02:17.483Z,2.3
2024-01-07T08:09:49.982Z,2.4
2024-01-07T08:17:22.408Z,1.6
2024-01-07T08:24:54.909Z,1.9
2024-01-07T08:32:27.390Z,1.3
2024-01-07T08:39:59.870Z,1.7
2024-01-07T08:47:35.094Z,2.1
2024-01-07T08:55:09.867Z,1.8
2024-01-07T09:02:44.039Z,1.3
2024-01-07T09:10:16.986Z,2.6
2024-01-07T09:17:49.560Z,1.7
2024-01-07T09:25:22.155Z,1.8
2024-01-07T09:32:54.766Z,1.9
2024-01-07T09:40:27.311Z,1.3
2024-01-07T09:47:59.828Z,1.3
2024-01-07T09:55:32.302Z,1.4
2024-01-07T10:03:04.765Z,1.4
2024-01-07T10:10:37.204Z,1.2
2024-01-07T10:18:09.780Z,1.3
2024-01-07T10:25:42.307Z,1.1
2024-01-07T10:33:14.893Z,1.6
2024-01-07T10:40:47.425Z,1.5
2024-01-07T10:48:19.947Z,1.4
2024-01-07T10:55:52.390Z,1.4
2024-01-07T11:03:24.888Z,1.6
2024-01-07T11:10:57.355Z,1.9
2024-01-07T11:18:29.864Z,1.4
2024-01-07T11:26:02.381Z,2.1
2024-01-07T11:33:35.074Z,2.1
2024-01-07T11:41:07.555Z,1.7
2024-01-07T11:48:40.067Z,2.0
2024-01-07T11:56:12.542Z,2.0
2024-01-07T12:03:45.111Z,2.3
2024-01-07T12:11:17.745Z,2.0
2024-01-07T12:18:50.647Z,2.2
2024-01-07T12:26:23.201Z,2.2
2024-01-07T12:33:55.762Z,1.6
2024-01-07T12:41:28.414Z,2.3
2024-01-07T12:49:00.940Z,2.0
2024-01-07T12:56:33.556Z,2.0
2024-01-07T13:04:06.140Z,1.8
2024-01-07T13:11:38.853Z,2.5
2024-01-07T13:19:11.429Z,1.9
2024-01-07T13:26:43.920Z,2.2
2024-01-07T13:34:16.593Z,1.8
2024-01-07T13:41:49.194Z,1.8
2024-01-07T13:49:21.734Z,1.8
2024-01-07T13:56:54.260Z,2.0
2024-01-07T14:04:26.785Z,3.0
2024-01-07T14:11:59.255Z,3.5
2024-01-07T14:19:31.725Z,4.1
2024-01-07T14:27:04.207Z,2.9
2024-01-07T14:34:36.678Z,3.7
2024-01-07T14:42:09.151Z,4.7
2024-01-07T14:49:41.706Z,4.7
2024-01-07T14:57:14.272Z,6.4
2024-01-07T15:04:46.916Z,6.0
2024-01-07T15:12:19.505Z,5.4
2024-01-07T15:19:52.006Z,8.0
2024-01-07T15:27:24.451Z,7.5
2024-01-07T15:34:56.887Z,7.2
2024-01-07T15:42:29.494Z,7.7
2024-01-07T15:50:02.104Z,8.2
2024-01-07T15:57:34.710Z,9.2
2024-01-07T16:05:07.213Z,9.0
2024-01-07T16:12:39.823Z,10.1
2024-01-07T16:20:12.376Z,10.0
2024-01-07T16:27:44.998Z,9.4
2024-01-07T16:35:17.433Z,10.6
2024-01-07T16:42:49.879Z,10.3
2024-01-07T16:50:25.019Z,9.8
2024-01-07T16:57:58.955Z,9.7
2024-01-07T17:05:31.525Z,8.2
2024-01-07T17:13:04.058Z,10.0
2024-01-07T17:20:36.516Z,8.7
2024-01-07T17:28:08.939Z,8.8
2024-01-07T17:35:41.392Z,8.4
2024-01-07T17:43:13.816Z,7.1
2024-01-07T17:50:49.082Z,7.7
2024-01-07T17:58:21.973Z,6.8
2024-01-07T18:05:54.435Z,6.1
2024-01-07T18:13:27.006Z,6.3
2024-01-07T18:20:59.481Z,5.6
2024-01-07T18:28:31.922Z,5.0
2024-01-07T18:36:04.480Z,5.9
2024-01-07T18:43:36.985Z,4.9
2024-01-07T18:51:09.414Z,5.1
2024-01-07T18:58:41.885Z,5.5
2024-01-07T19:06:14.333Z,5.0
2024-01-07T19:13:46.825Z,5.2
2024-01-07T19:21:19.352Z,3.7
2024-01-07T19:28:51.852Z,4.6
2024-01-07T19:36:24.334Z,3.8
2024-01-07T19:43:56.789Z,4.2
2024-01-07T19:51:29.229Z,3.6
2024-01-07T19:59:01.755Z,3.8
2024-01-07T20:06:34.243Z,3.1
2024-01-07T20:14:06.788Z,2.2
2024-01-07T20:21:39.257Z,2.9
2024-01-07T20:29:11.781Z,3.2
2024-01-07T20:36:44.232Z,2.7
2024-01-07T20:44:16.681Z,2.5
2024-01-07T20:51:49.258Z,2.9
2024-01-07T20:59:21.763Z,2.7
2024-01-07T21:06:54.276Z,2.4
2024-01-07T21:14:26.769Z,2.8
2024-01-07T21:21:59.300Z,2.3
2024-01-07T21:29:31.777Z,1.4
2024-01-07T21:37:04.236Z,2.1
2024-01-07T21:44:36.701Z,1.7
2024-01-07T21:52:09.148Z,1.9
2024-01-07T21:59:41.577Z,2.0
2024-01-07T22:07:14.040Z,1.8
2024-01-07T22:14:46.477Z,1.4
2024-01-07T22:22:18.965Z,1.8
2024-01-07T22:29:51.408Z,0.7
2024-01-07T22:37:23.846Z,1.3
2024-01-07T22:44:56.288Z,1.1
2024-01-07T22:52:28.720Z,0.8
2024-01-07T23:00:01.153Z,1.2
2024-01-07T23:07:33.596Z,1.3
2024-01-07T23:15:06.019Z,1.2
2024-01-07T23:22:38.582Z,1.0
2024-01-07T23:30:11.127Z,1.1
2024-01-07T23:37:43.708Z,0.9
2024-01-07T23:45:16.173Z,1.1
2024-01-07T23:52:48.622Z,1.1
